sensor_id;sensor_type;location;lat;lon;timestamp;temperature;humidity
22192;DHT22;11261;52.456;10.850;2022-08-19T00:01:28;22.10;99.90
22192;DHT22;11261;52.456;10.850;2022-08-19T00:03:57;22.30;99.90
22192;DHT22;11261;52.456;10.850;2022-08-19T00:06:27;22.10;99.90
22192;DHT22;11261;52.456;10.850;2022-08-19T00:08:56;22.10;99.90
22192;DHT22;11261;52.456;10.850;2022-08-19T00:11:24;22.00;99.90
22192;DHT22;11261;52.456;10.850;2022-08-19T00:13:54;22.20;99.90
22192;DHT22;11261;52.456;10.850;2022-08-19T00:16:25;22.20;99.90
22192;DHT22;11261;52.456;10.850;2022-08-19T00:18:54;22.30;99.90
22192;DHT22;11261;52.456;10.850;2022-08-19T00:21:24;22.10;99.90
22192;DHT22;11261;52.456;10.850;2022-08-19T00:23:53;22.30;99.90
22192;DHT22;11261;52.456;10.850;2022-08-19T00:26:24;22.30;99.90
22192;DHT22;11261;52.456;10.850;2022-08-19T00:28:53;22.50;99.90
22192;DHT22;11261;52.456;10.850;2022-08-19T00:31:23;22.70;99.90
22192;DHT22;11261;52.456;10.850;2022-08-19T00:33:52;22.80;99.90
22192;DHT22;11261;52.456;10.850;2022-08-19T00:36:20;23.00;99.90
22192;DHT22;11261;52.456;10.850;2022-08-19T00:38:48;23.00;99.90
22192;DHT22;11261;52.456;10.850;2022-08-19T00:41:20;23.00;99.90
22192;DHT22;11261;52.456;10.850;2022-08-19T00:44:04;22.60;99.90
22192;DHT22;11261;52.456;10.850;2022-08-19T00:46:35;22.60;99.90
22192;DHT22;11261;52.456;10.850;2022-08-19T00:49:10;22.60;99.90
22192;DHT22;11261;52.456;10.850;2022-08-19T00:51:42;22.70;99.90
22192;DHT22;11261;52.456;10.850;2022-08-19T00:54:12;22.70;99.90
22192;DHT22;11261;52.456;10.850;2022-08-19T00:56:41;22.80;99.90
22192;DHT22;11261;52.456;10.850;2022-08-19T00:59:10;22.80;99.90
22192;DHT22;11261;52.456;10.850;2022-08-19T01:01:41;22.60;99.90
22192;DHT22;11261;52.456;10.850;2022-08-19T01:04:10;22.60;99.90
22192;DHT22;11261;52.456;10.850;2022-08-19T01:06:39;22.40;99.90
22192;DHT22;11261;52.456;10.850;2022-08-19T01:09:11;22.50;99.90
22192;DHT22;11261;52.456;10.850;2022-08-19T01:11:41;22.50;99.90
22192;DHT22;11261;52.456;10.850;2022-08-19T01:14:12;22.50;99.90
22192;DHT22;11261;52.456;10.850;2022-08-19T01:16:42;22.60;99.90
22192;DHT22;11261;52.456;10.850;2022-08-19T01:19:17;22.70;99.90
22192;DHT22;11261;52.456;10.850;2022-08-19T01:21:53;22.50;99.90
22192;DHT22;11261;52.456;10.850;2022-08-19T01:24:25;22.50;99.90
22192;DHT22;11261;52.456;10.850;2022-08-19T01:26:53;22.40;99.90
22192;DHT22;11261;52.456;10.850;2022-08-19T01:29:22;22.40;99.90
22192;DHT22;11261;52.456;10.850;2022-08-19T01:31:52;22.30;99.90
22192;DHT22;11261;52.456;10.850;2022-08-19T01:34:20;22.30;99.90
22192;DHT22;11261;52.456;10.850;2022-08-19T01:36:48;22.40;99.90
22192;DHT22;11261;52.456;10.850;2022-08-19T01:39:19;22.00;99.90
22192;DHT22;11261;52.456;10.850;2022-08-19T01:41:50;22.20;99.90
22192;DHT22;11261;52.456;10.850;2022-08-19T01:44:21;22.30;99.90
22192;DHT22;11261;52.456;10.850;2022-08-19T01:46:51;22.20;99.90
22192;DHT22;11261;52.456;10.850;2022-08-19T01:49:22;22.30;99.90
22192;DHT22;11261;52.456;10.850;2022-08-19T01:51:51;22.00;99.90
22192;DHT22;11261;52.456;10.850;2022-08-19T01:54:22;22.00;99.90
22192;DHT22;11261;52.456;10.850;2022-08-19T01:56:59;22.10;99.90
22192;DHT22;11261;52.456;10.850;2022-08-19T01:59:28;22.10;99.90
22192;DHT22;11261;52.456;10.850;2022-08-19T02:01:57;22.20;99.90
22192;DHT22;11261;52.456;10.850;2022-08-19T02:04:25;22.30;99.90
22192;DHT22;11261;52.456;10.850;2022-08-19T02:06:53;22.30;99.90
22192;DHT22;11261;52.456;10.850;2022-08-19T02:09:22;22.40;99.90
22192;DHT22;11261;52.456;10.850;2022-08-19T02:11:50;22.30;99.90
22192;DHT22;11261;52.456;10.850;2022-08-19T02:14:19;22.30;99.90
22192;DHT22;11261;52.456;10.850;2022-08-19T02:16:47;21.90;99.90
22192;DHT22;11261;52.456;10.850;2022-08-19T02:19:16;22.00;99.90
22192;DHT22;11261;52.456;10.850;2022-08-19T02:21:44;22.10;99.90
22192;DHT22;11261;52.456;10.850;2022-08-19T02:24:12;22.10;99.90
22192;DHT22;11261;52.456;10.850;2022-08-19T02:26:40;22.20;99.90
22192;DHT22;11261;52.456;10.850;2022-08-19T02:29:08;22.10;99.90
22192;DHT22;11261;52.456;10.850;2022-08-19T02:31:38;22.20;99.90
22192;DHT22;11261;52.456;10.850;2022-08-19T02:34:06;22.30;99.90
22192;DHT22;11261;52.456;10.850;2022-08-19T02:36:34;22.20;99.90
22192;DHT22;11261;52.456;10.850;2022-08-19T02:39:09;22.30;99.90
22192;DHT22;11261;52.456;10.850;2022-08-19T02:41:36;22.30;99.90
22192;DHT22;11261;52.456;10.850;2022-08-19T02:44:05;21.90;99.90
22192;DHT22;11261;52.456;10.850;2022-08-19T02:46:55;22.00;99.90
22192;DHT22;11261;52.456;10.850;2022-08-19T02:49:23;21.70;99.90
22192;DHT22;11261;52.456;10.850;2022-08-19T02:51:52;21.70;99.90
22192;DHT22;11261;52.456;10.850;2022-08-19T02:54:21;21.60;99.90
22192;DHT22;11261;52.456;10.850;2022-08-19T02:56:49;21.60;99.90
22192;DHT22;11261;52.456;10.850;2022-08-19T02:59:17;21.70;99.90
22192;DHT22;11261;52.456;10.850;2022-08-19T03:01:48;21.80;99.90
22192;DHT22;11261;52.456;10.850;2022-08-19T03:04:19;21.20;99.90
22192;DHT22;11261;52.456;10.850;2022-08-19T03:06:47;21.50;99.90
22192;DHT22;11261;52.456;10.850;2022-08-19T03:09:18;21.30;99.90
22192;DHT22;11261;52.456;10.850;2022-08-19T03:11:46;21.40;99.90
22192;DHT22;11261;52.456;10.850;2022-08-19T03:14:18;21.50;99.90
22192;DHT22;11261;52.456;10.850;2022-08-19T03:16:48;21.60;99.90
22192;DHT22;11261;52.456;10.850;2022-08-19T03:19:19;21.70;99.90
22192;DHT22;11261;52.456;10.850;2022-08-19T03:21:49;21.70;99.90
22192;DHT22;11261;52.456;10.850;2022-08-19T03:24:18;21.70;99.90
22192;DHT22;11261;52.456;10.850;2022-08-19T03:26:48;21.70;99.90
22192;DHT22;11261;52.456;10.850;2022-08-19T03:29:18;21.70;99.90
22192;DHT22;11261;52.456;10.850;2022-08-19T03:31:57;21.70;99.90
22192;DHT22;11261;52.456;10.850;2022-08-19T03:34:30;21.50;99.90
22192;DHT22;11261;52.456;10.850;2022-08-19T03:37:05;21.60;99.90
22192;DHT22;11261;52.456;10.850;2022-08-19T03:39:33;21.70;99.90
22192;DHT22;11261;52.456;10.850;2022-08-19T03:42:03;21.70;99.90
22192;DHT22;11261;52.456;10.850;2022-08-19T03:44:52;21.60;99.90
22192;DHT22;11261;52.456;10.850;2022-08-19T03:47:21;21.60;99.90
22192;DHT22;11261;52.456;10.850;2022-08-19T03:49:50;21.50;99.90
22192;DHT22;11261;52.456;10.850;2022-08-19T03:52:19;21.20;99.90
22192;DHT22;11261;52.456;10.850;2022-08-19T03:54:47;21.50;99.90
22192;DHT22;11261;52.456;10.850;2022-08-19T03:57:15;21.40;99.90
22192;DHT22;11261;52.456;10.850;2022-08-19T03:59:43;21.10;99.90
22192;DHT22;11261;52.456;10.850;2022-08-19T04:02:12;21.20;99.90
22192;DHT22;11261;52.456;10.850;2022-08-19T04:04:42;21.20;99.90
22192;DHT22;11261;52.456;10.850;2022-08-19T04:07:13;21.20;99.90
22192;DHT22;11261;52.456;10.850;2022-08-19T04:09:42;21.40;99.90
22192;DHT22;11261;52.456;10.850;2022-08-19T04:12:11;21.50;99.90
22192;DHT22;11261;52.456;10.850;2022-08-19T04:14:39;21.50;99.90
22192;DHT22;11261;52.456;10.850;2022-08-19T04:17:08;21.30;99.90
22192;DHT22;11261;52.456;10.850;2022-08-19T04:19:36;21.00;99.90
22192;DHT22;11261;52.456;10.850;2022-08-19T04:22:05;21.40;99.90
22192;DHT22;11261;52.456;10.850;2022-08-19T04:24:35;21.20;99.90
22192;DHT22;11261;52.456;10.850;2022-08-19T04:27:04;21.00;99.90
22192;DHT22;11261;52.456;10.850;2022-08-19T04:29:33;21.10;99.90
22192;DHT22;11261;52.456;10.850;2022-08-19T04:32:03;21.00;99.90
22192;DHT22;11261;52.456;10.850;2022-08-19T04:34:36;20.90;99.90
22192;DHT22;11261;52.456;10.850;2022-08-19T04:37:25;20.80;99.90
22192;DHT22;11261;52.456;10.850;2022-08-19T04:40:05;21.30;99.90
22192;DHT22;11261;52.456;10.850;2022-08-19T04:42:51;20.90;99.90
22192;DHT22;11261;52.456;10.850;2022-08-19T04:45:20;20.70;99.90
22192;DHT22;11261;52.456;10.850;2022-08-19T04:47:49;21.00;99.90
22192;DHT22;11261;52.456;10.850;2022-08-19T04:50:25;20.90;99.90
22192;DHT22;11261;52.456;10.850;2022-08-19T04:52:54;21.10;99.90
22192;DHT22;11261;52.456;10.850;2022-08-19T04:55:24;20.90;99.90
22192;DHT22;11261;52.456;10.850;2022-08-19T04:57:53;20.90;99.90
22192;DHT22;11261;52.456;10.850;2022-08-19T05:00:21;20.70;99.90
22192;DHT22;11261;52.456;10.850;2022-08-19T05:02:50;21.00;99.90
22192;DHT22;11261;52.456;10.850;2022-08-19T05:05:18;20.50;99.90
22192;DHT22;11261;52.456;10.850;2022-08-19T05:07:47;20.60;99.90
22192;DHT22;11261;52.456;10.850;2022-08-19T05:10:15;20.70;99.90
22192;DHT22;11261;52.456;10.850;2022-08-19T05:12:45;20.90;99.90
22192;DHT22;11261;52.456;10.850;2022-08-19T05:15:13;20.80;99.90
22192;DHT22;11261;52.456;10.850;2022-08-19T05:17:41;20.80;99.90
22192;DHT22;11261;52.456;10.850;2022-08-19T05:20:30;20.80;99.90
22192;DHT22;11261;52.456;10.850;2022-08-19T05:23:16;20.90;99.90
22192;DHT22;11261;52.456;10.850;2022-08-19T05:25:48;20.80;99.90
22192;DHT22;11261;52.456;10.850;2022-08-19T05:28:18;20.70;99.90
22192;DHT22;11261;52.456;10.850;2022-08-19T05:30:46;20.40;99.90
22192;DHT22;11261;52.456;10.850;2022-08-19T05:33:15;20.30;99.90
22192;DHT22;11261;52.456;10.850;2022-08-19T05:35:43;20.60;99.90
22192;DHT22;11261;52.456;10.850;2022-08-19T05:38:13;20.10;99.90
22192;DHT22;11261;52.456;10.850;2022-08-19T05:40:42;20.40;99.90
22192;DHT22;11261;52.456;10.850;2022-08-19T05:43:17;20.50;99.90
22192;DHT22;11261;52.456;10.850;2022-08-19T05:45:46;20.60;99.90
22192;DHT22;11261;52.456;10.850;2022-08-19T05:48:14;20.40;99.90
22192;DHT22;11261;52.456;10.850;2022-08-19T05:50:44;20.30;99.90
22192;DHT22;11261;52.456;10.850;2022-08-19T05:53:13;20.10;99.90
22192;DHT22;11261;52.456;10.850;2022-08-19T05:55:43;20.40;99.90
22192;DHT22;11261;52.456;10.850;2022-08-19T05:58:11;20.50;99.90
22192;DHT22;11261;52.456;10.850;2022-08-19T06:00:43;20.70;99.90
22192;DHT22;11261;52.456;10.850;2022-08-19T06:03:11;20.70;99.90
22192;DHT22;11261;52.456;10.850;2022-08-19T06:05:40;20.60;99.90
22192;DHT22;11261;52.456;10.850;2022-08-19T06:08:19;20.60;99.90
22192;DHT22;11261;52.456;10.850;2022-08-19T06:11:16;20.70;99.90
22192;DHT22;11261;52.456;10.850;2022-08-19T06:13:47;20.30;99.90
22192;DHT22;11261;52.456;10.850;2022-08-19T06:16:19;20.40;99.90
22192;DHT22;11261;52.456;10.850;2022-08-19T06:18:50;21.20;99.90
22192;DHT22;11261;52.456;10.850;2022-08-19T06:21:19;21.50;99.90
22192;DHT22;11261;52.456;10.850;2022-08-19T06:23:48;21.40;99.90
22192;DHT22;11261;52.456;10.850;2022-08-19T06:26:18;21.60;99.90
22192;DHT22;11261;52.456;10.850;2022-08-19T06:28:47;22.00;99.90
22192;DHT22;11261;52.456;10.850;2022-08-19T06:31:18;22.10;99.90
22192;DHT22;11261;52.456;10.850;2022-08-19T06:33:48;21.80;99.90
22192;DHT22;11261;52.456;10.850;2022-08-19T06:36:19;22.00;99.90
22192;DHT22;11261;52.456;10.850;2022-08-19T06:38:51;22.00;99.90
22192;DHT22;11261;52.456;10.850;2022-08-19T06:41:19;21.80;99.90
22192;DHT22;11261;52.456;10.850;2022-08-19T06:43:47;22.00;99.90
22192;DHT22;11261;52.456;10.850;2022-08-19T06:46:21;21.80;99.90
22192;DHT22;11261;52.456;10.850;2022-08-19T06:48:50;22.20;99.90
22192;DHT22;11261;52.456;10.850;2022-08-19T06:51:20;22.40;99.90
22192;DHT22;11261;52.456;10.850;2022-08-19T06:53:53;22.40;99.90
22192;DHT22;11261;52.456;10.850;2022-08-19T06:56:23;22.30;99.90
22192;DHT22;11261;52.456;10.850;2022-08-19T06:58:57;22.30;99.90
22192;DHT22;11261;52.456;10.850;2022-08-19T07:01:27;22.10;99.90
22192;DHT22;11261;52.456;10.850;2022-08-19T07:03:55;22.00;99.90
22192;DHT22;11261;52.456;10.850;2022-08-19T07:06:24;22.10;99.90
22192;DHT22;11261;52.456;10.850;2022-08-19T07:09:12;22.10;99.90
22192;DHT22;11261;52.456;10.850;2022-08-19T07:11:45;22.10;99.90
22192;DHT22;11261;52.456;10.850;2022-08-19T07:14:14;22.10;99.90
22192;DHT22;11261;52.456;10.850;2022-08-19T07:16:48;22.30;99.90
22192;DHT22;11261;52.456;10.850;2022-08-19T07:19:17;22.00;99.90
22192;DHT22;11261;52.456;10.850;2022-08-19T07:21:47;22.10;99.90
22192;DHT22;11261;52.456;10.850;2022-08-19T07:24:17;22.10;99.90
22192;DHT22;11261;52.456;10.850;2022-08-19T07:26:45;22.20;99.90
22192;DHT22;11261;52.456;10.850;2022-08-19T07:29:18;22.10;99.90
22192;DHT22;11261;52.456;10.850;2022-08-19T07:31:56;22.10;99.90
22192;DHT22;11261;52.456;10.850;2022-08-19T07:34:27;22.00;99.90
22192;DHT22;11261;52.456;10.850;2022-08-19T07:36:56;22.10;99.90
22192;DHT22;11261;52.456;10.850;2022-08-19T07:39:27;22.10;99.90
22192;DHT22;11261;52.456;10.850;2022-08-19T07:41:58;22.10;99.90
22192;DHT22;11261;52.456;10.850;2022-08-19T07:44:27;21.70;99.90
22192;DHT22;11261;52.456;10.850;2022-08-19T07:46:57;21.40;99.90
22192;DHT22;11261;52.456;10.850;2022-08-19T07:49:27;21.10;99.90
22192;DHT22;11261;52.456;10.850;2022-08-19T07:51:57;21.30;99.90
22192;DHT22;11261;52.456;10.850;2022-08-19T07:54:27;21.10;99.90
22192;DHT22;11261;52.456;10.850;2022-08-19T07:56:56;21.20;99.90
22192;DHT22;11261;52.456;10.850;2022-08-19T07:59:25;21.30;99.90
22192;DHT22;11261;52.456;10.850;2022-08-19T08:01:53;21.10;99.90
22192;DHT22;11261;52.456;10.850;2022-08-19T08:04:23;20.90;99.90
22192;DHT22;11261;52.456;10.850;2022-08-19T08:07:08;21.30;99.90
22192;DHT22;11261;52.456;10.850;2022-08-19T08:10:12;21.50;99.90
22192;DHT22;11261;52.456;10.850;2022-08-19T08:12:47;21.70;99.90
22192;DHT22;11261;52.456;10.850;2022-08-19T08:15:36;21.80;99.90
22192;DHT22;11261;52.456;10.850;2022-08-19T08:18:09;22.00;99.90
22192;DHT22;11261;52.456;10.850;2022-08-19T08:20:39;21.80;99.90
22192;DHT22;11261;52.456;10.850;2022-08-19T08:23:07;22.10;99.90
22192;DHT22;11261;52.456;10.850;2022-08-19T08:25:55;22.30;99.90
22192;DHT22;11261;52.456;10.850;2022-08-19T08:28:23;22.20;99.90
22192;DHT22;11261;52.456;10.850;2022-08-19T08:30:57;22.30;99.90
22192;DHT22;11261;52.456;10.850;2022-08-19T08:33:28;22.30;99.90
22192;DHT22;11261;52.456;10.850;2022-08-19T08:36:02;22.00;99.90
22192;DHT22;11261;52.456;10.850;2022-08-19T08:38:31;22.00;99.90
22192;DHT22;11261;52.456;10.850;2022-08-19T08:41:11;21.90;99.90
22192;DHT22;11261;52.456;10.850;2022-08-19T08:43:48;21.90;99.90
22192;DHT22;11261;52.456;10.850;2022-08-19T08:46:22;21.50;99.90
22192;DHT22;11261;52.456;10.850;2022-08-19T08:49:02;21.30;99.90
22192;DHT22;11261;52.456;10.850;2022-08-19T08:51:39;21.60;99.90
22192;DHT22;11261;52.456;10.850;2022-08-19T08:54:17;21.80;99.90
22192;DHT22;11261;52.456;10.850;2022-08-19T08:56:46;21.80;99.90
22192;DHT22;11261;52.456;10.850;2022-08-19T08:59:21;21.80;99.90
22192;DHT22;11261;52.456;10.850;2022-08-19T09:01:52;22.00;99.90
22192;DHT22;11261;52.456;10.850;2022-08-19T09:04:20;21.80;99.90
22192;DHT22;11261;52.456;10.850;2022-08-19T09:06:56;21.40;99.90
22192;DHT22;11261;52.456;10.850;2022-08-19T09:09:30;21.10;99.90
22192;DHT22;11261;52.456;10.850;2022-08-19T09:12:08;21.10;99.90
22192;DHT22;11261;52.456;10.850;2022-08-19T09:14:46;20.90;99.90
22192;DHT22;11261;52.456;10.850;2022-08-19T09:17:19;21.10;99.90
22192;DHT22;11261;52.456;10.850;2022-08-19T09:20:00;20.90;99.90
22192;DHT22;11261;52.456;10.850;2022-08-19T09:22:37;20.70;99.90
22192;DHT22;11261;52.456;10.850;2022-08-19T09:25:08;20.40;99.90
22192;DHT22;11261;52.456;10.850;2022-08-19T09:27:37;20.50;99.90
22192;DHT22;11261;52.456;10.850;2022-08-19T09:30:21;21.00;99.90
22192;DHT22;11261;52.456;10.850;2022-08-19T09:32:51;20.90;99.90
22192;DHT22;11261;52.456;10.850;2022-08-19T09:35:21;21.20;99.90
22192;DHT22;11261;52.456;10.850;2022-08-19T09:37:52;21.50;99.90
22192;DHT22;11261;52.456;10.850;2022-08-19T09:40:26;21.80;99.90
22192;DHT22;11261;52.456;10.850;2022-08-19T09:42:57;21.50;99.90
22192;DHT22;11261;52.456;10.850;2022-08-19T09:45:39;21.20;99.90
22192;DHT22;11261;52.456;10.850;2022-08-19T09:48:07;21.10;99.90
22192;DHT22;11261;52.456;10.850;2022-08-19T09:50:37;21.40;99.90
22192;DHT22;11261;52.456;10.850;2022-08-19T09:53:20;21.50;99.90
22192;DHT22;11261;52.456;10.850;2022-08-19T09:55:51;21.50;99.90
22192;DHT22;11261;52.456;10.850;2022-08-19T09:58:19;21.60;99.90
22192;DHT22;11261;52.456;10.850;2022-08-19T10:00:52;21.60;99.90
22192;DHT22;11261;52.456;10.850;2022-08-19T10:03:22;21.40;99.90
22192;DHT22;11261;52.456;10.850;2022-08-19T10:06:00;21.10;99.90
22192;DHT22;11261;52.456;10.850;2022-08-19T10:08:32;21.20;99.90
22192;DHT22;11261;52.456;10.850;2022-08-19T10:11:01;21.20;99.90
22192;DHT22;11261;52.456;10.850;2022-08-19T10:13:50;21.20;99.90
22192;DHT22;11261;52.456;10.850;2022-08-19T10:16:20;21.50;99.90
22192;DHT22;11261;52.456;10.850;2022-08-19T10:18:56;21.70;99.90
22192;DHT22;11261;52.456;10.850;2022-08-19T10:21:27;21.40;99.90
22192;DHT22;11261;52.456;10.850;2022-08-19T10:24:01;21.30;99.90
22192;DHT22;11261;52.456;10.850;2022-08-19T10:26:32;21.10;99.90
22192;DHT22;11261;52.456;10.850;2022-08-19T10:29:00;21.10;99.90
22192;DHT22;11261;52.456;10.850;2022-08-19T10:31:32;21.20;99.90
22192;DHT22;11261;52.456;10.850;2022-08-19T10:34:20;21.20;99.90
22192;DHT22;11261;52.456;10.850;2022-08-19T10:36:54;21.40;99.90
22192;DHT22;11261;52.456;10.850;2022-08-19T10:39:30;21.50;99.90
22192;DHT22;11261;52.456;10.850;2022-08-19T10:42:09;21.60;99.90
22192;DHT22;11261;52.456;10.850;2022-08-19T10:44:38;21.50;99.90
22192;DHT22;11261;52.456;10.850;2022-08-19T10:47:06;21.40;99.90
22192;DHT22;11261;52.456;10.850;2022-08-19T10:49:50;21.40;99.90
22192;DHT22;11261;52.456;10.850;2022-08-19T10:52:38;21.40;99.90
22192;DHT22;11261;52.456;10.850;2022-08-19T10:55:19;21.70;99.90
22192;DHT22;11261;52.456;10.850;2022-08-19T10:58:11;21.90;99.90
22192;DHT22;11261;52.456;10.850;2022-08-19T11:00:40;21.90;99.90
22192;DHT22;11261;52.456;10.850;2022-08-19T11:03:09;22.00;99.90
22192;DHT22;11261;52.456;10.850;2022-08-19T11:05:37;22.30;99.90
22192;DHT22;11261;52.456;10.850;2022-08-19T11:08:06;22.70;99.90
22192;DHT22;11261;52.456;10.850;2022-08-19T11:10:51;22.60;99.90
22192;DHT22;11261;52.456;10.850;2022-08-19T11:13:25;22.70;99.90
22192;DHT22;11261;52.456;10.850;2022-08-19T11:15:57;22.70;99.90
22192;DHT22;11261;52.456;10.850;2022-08-19T11:18:33;22.70;99.90
22192;DHT22;11261;52.456;10.850;2022-08-19T11:21:07;23.00;99.90
22192;DHT22;11261;52.456;10.850;2022-08-19T11:23:36;23.00;99.90
22192;DHT22;11261;52.456;10.850;2022-08-19T11:26:06;23.20;99.90
22192;DHT22;11261;52.456;10.850;2022-08-19T11:28:34;23.50;99.90
22192;DHT22;11261;52.456;10.850;2022-08-19T11:31:03;23.50;99.90
22192;DHT22;11261;52.456;10.850;2022-08-19T11:33:31;23.50;99.90
22192;DHT22;11261;52.456;10.850;2022-08-19T11:35:59;23.30;99.90
22192;DHT22;11261;52.456;10.850;2022-08-19T11:38:28;23.00;99.90
22192;DHT22;11261;52.456;10.850;2022-08-19T11:40:57;23.10;99.90
22192;DHT22;11261;52.456;10.850;2022-08-19T11:43:27;23.50;99.90
22192;DHT22;11261;52.456;10.850;2022-08-19T11:46:04;23.80;99.90
22192;DHT22;11261;52.456;10.850;2022-08-19T11:48:34;23.80;99.90
22192;DHT22;11261;52.456;10.850;2022-08-19T11:51:05;23.80;99.90
22192;DHT22;11261;52.456;10.850;2022-08-19T11:53:34;23.90;99.90
22192;DHT22;11261;52.456;10.850;2022-08-19T11:56:03;24.00;99.90
22192;DHT22;11261;52.456;10.850;2022-08-19T11:58:33;24.00;99.90
22192;DHT22;11261;52.456;10.850;2022-08-19T12:01:05;24.00;99.90
22192;DHT22;11261;52.456;10.850;2022-08-19T12:03:33;24.00;99.90
22192;DHT22;11261;52.456;10.850;2022-08-19T12:06:04;24.20;99.90
22192;DHT22;11261;52.456;10.850;2022-08-19T12:08:32;24.40;99.90
22192;DHT22;11261;52.456;10.850;2022-08-19T12:11:01;24.60;99.90
22192;DHT22;11261;52.456;10.850;2022-08-19T12:13:29;24.80;99.90
22192;DHT22;11261;52.456;10.850;2022-08-19T12:15:59;25.00;99.90
22192;DHT22;11261;52.456;10.850;2022-08-19T12:18:28;25.10;99.90
22192;DHT22;11261;52.456;10.850;2022-08-19T12:20:57;25.00;99.90
22192;DHT22;11261;52.456;10.850;2022-08-19T12:23:27;24.90;99.90
22192;DHT22;11261;52.456;10.850;2022-08-19T12:25:55;25.10;99.90
22192;DHT22;11261;52.456;10.850;2022-08-19T12:28:25;25.00;99.90
22192;DHT22;11261;52.456;10.850;2022-08-19T12:30:53;24.90;99.90
22192;DHT22;11261;52.456;10.850;2022-08-19T12:33:23;25.00;99.90
22192;DHT22;11261;52.456;10.850;2022-08-19T12:35:55;24.90;99.90
22192;DHT22;11261;52.456;10.850;2022-08-19T12:38:27;24.90;99.90
22192;DHT22;11261;52.456;10.850;2022-08-19T12:40:56;25.10;99.90
22192;DHT22;11261;52.456;10.850;2022-08-19T12:43:26;25.20;99.90
22192;DHT22;11261;52.456;10.850;2022-08-19T12:45:56;25.30;99.90
22192;DHT22;11261;52.456;10.850;2022-08-19T12:48:25;25.30;99.90
22192;DHT22;11261;52.456;10.850;2022-08-19T12:51:00;25.30;99.90
22192;DHT22;11261;52.456;10.850;2022-08-19T12:53:29;25.50;99.90
22192;DHT22;11261;52.456;10.850;2022-08-19T12:55:58;25.50;99.90
22192;DHT22;11261;52.456;10.850;2022-08-19T12:58:27;25.40;99.90
22192;DHT22;11261;52.456;10.850;2022-08-19T13:00:55;25.60;99.90
22192;DHT22;11261;52.456;10.850;2022-08-19T13:03:25;25.60;99.90
22192;DHT22;11261;52.456;10.850;2022-08-19T13:05:56;25.50;99.90
22192;DHT22;11261;52.456;10.850;2022-08-19T13:08:24;25.40;99.90
22192;DHT22;11261;52.456;10.850;2022-08-19T13:10:52;25.40;99.90
22192;DHT22;11261;52.456;10.850;2022-08-19T13:13:21;25.50;99.90
22192;DHT22;11261;52.456;10.850;2022-08-19T13:15:50;25.70;99.90
22192;DHT22;11261;52.456;10.850;2022-08-19T13:18:18;25.70;99.90
22192;DHT22;11261;52.456;10.850;2022-08-19T13:20:50;25.40;99.90
22192;DHT22;11261;52.456;10.850;2022-08-19T13:23:18;25.30;99.90
22192;DHT22;11261;52.456;10.850;2022-08-19T13:25:55;25.50;99.90
22192;DHT22;11261;52.456;10.850;2022-08-19T13:28:24;25.70;99.90
22192;DHT22;11261;52.456;10.850;2022-08-19T13:30:55;25.60;99.90
22192;DHT22;11261;52.456;10.850;2022-08-19T13:33:41;25.60;99.90
22192;DHT22;11261;52.456;10.850;2022-08-19T13:36:10;25.70;99.90
22192;DHT22;11261;52.456;10.850;2022-08-19T13:38:38;25.60;99.90
22192;DHT22;11261;52.456;10.850;2022-08-19T13:41:06;25.40;99.90
22192;DHT22;11261;52.456;10.850;2022-08-19T13:43:40;25.40;99.90
22192;DHT22;11261;52.456;10.850;2022-08-19T13:46:10;25.60;99.90
22192;DHT22;11261;52.456;10.850;2022-08-19T13:48:41;25.50;99.90
22192;DHT22;11261;52.456;10.850;2022-08-19T13:51:11;25.50;99.90
22192;DHT22;11261;52.456;10.850;2022-08-19T13:53:39;25.30;99.90
22192;DHT22;11261;52.456;10.850;2022-08-19T13:56:15;25.20;99.90
22192;DHT22;11261;52.456;10.850;2022-08-19T13:58:48;25.40;99.90
22192;DHT22;11261;52.456;10.850;2022-08-19T14:01:19;25.30;99.90
22192;DHT22;11261;52.456;10.850;2022-08-19T14:03:50;25.40;99.90
22192;DHT22;11261;52.456;10.850;2022-08-19T14:06:20;25.30;99.90
22192;DHT22;11261;52.456;10.850;2022-08-19T14:08:49;25.30;99.90
22192;DHT22;11261;52.456;10.850;2022-08-19T14:11:18;25.10;99.90
22192;DHT22;11261;52.456;10.850;2022-08-19T14:13:47;25.00;99.90
22192;DHT22;11261;52.456;10.850;2022-08-19T14:16:15;24.90;99.90
22192;DHT22;11261;52.456;10.850;2022-08-19T14:18:43;25.00;99.90
22192;DHT22;11261;52.456;10.850;2022-08-19T14:21:15;25.30;99.90
22192;DHT22;11261;52.456;10.850;2022-08-19T14:23:47;25.10;99.90
22192;DHT22;11261;52.456;10.850;2022-08-19T14:26:18;25.20;99.90
22192;DHT22;11261;52.456;10.850;2022-08-19T14:28:47;25.20;99.90
22192;DHT22;11261;52.456;10.850;2022-08-19T14:31:17;25.20;99.90
22192;DHT22;11261;52.456;10.850;2022-08-19T14:33:47;25.20;99.90
22192;DHT22;11261;52.456;10.850;2022-08-19T14:36:16;25.60;99.90
22192;DHT22;11261;52.456;10.850;2022-08-19T14:38:45;25.50;99.90
22192;DHT22;11261;52.456;10.850;2022-08-19T14:41:15;25.60;99.90
22192;DHT22;11261;52.456;10.850;2022-08-19T14:43:45;25.60;99.90
22192;DHT22;11261;52.456;10.850;2022-08-19T14:46:14;25.90;99.90
22192;DHT22;11261;52.456;10.850;2022-08-19T14:48:43;25.80;99.90
22192;DHT22;11261;52.456;10.850;2022-08-19T14:51:16;25.90;99.90
22192;DHT22;11261;52.456;10.850;2022-08-19T14:53:46;26.10;99.90
22192;DHT22;11261;52.456;10.850;2022-08-19T14:56:17;25.90;99.90
22192;DHT22;11261;52.456;10.850;2022-08-19T14:58:46;25.90;99.90
22192;DHT22;11261;52.456;10.850;2022-08-19T15:01:19;26.30;99.90
22192;DHT22;11261;52.456;10.850;2022-08-19T15:03:48;26.30;99.90
22192;DHT22;11261;52.456;10.850;2022-08-19T15:06:20;26.10;99.90
22192;DHT22;11261;52.456;10.850;2022-08-19T15:08:50;26.10;99.90
22192;DHT22;11261;52.456;10.850;2022-08-19T15:11:22;26.00;99.90
22192;DHT22;11261;52.456;10.850;2022-08-19T15:13:52;26.10;99.90
22192;DHT22;11261;52.456;10.850;2022-08-19T15:16:20;26.30;99.90
22192;DHT22;11261;52.456;10.850;2022-08-19T15:18:51;26.40;99.90
22192;DHT22;11261;52.456;10.850;2022-08-19T15:21:22;26.20;99.90
22192;DHT22;11261;52.456;10.850;2022-08-19T15:23:55;26.20;99.90
22192;DHT22;11261;52.456;10.850;2022-08-19T15:26:25;26.30;99.90
22192;DHT22;11261;52.456;10.850;2022-08-19T15:28:54;26.50;99.90
22192;DHT22;11261;52.456;10.850;2022-08-19T15:31:23;26.30;99.90
22192;DHT22;11261;52.456;10.850;2022-08-19T15:33:55;26.10;99.90
22192;DHT22;11261;52.456;10.850;2022-08-19T15:36:24;26.40;99.90
22192;DHT22;11261;52.456;10.850;2022-08-19T15:38:54;26.40;99.90
22192;DHT22;11261;52.456;10.850;2022-08-19T15:41:25;26.60;99.90